Time;durP1;ratioP1;P1;durP2;ratioP2;P2;SDS_P1;SDS_P2;PMS_P1;PMS_P2;Temp;Humidity;BMP_temperature;BMP_pressure;BME280_temperature;BME280_humidity;BME280_pressure;Samples;Min_cycle;Max_cycle;Signal;HPM_P1;HPM_P2
2024/01/26 00:00:53;;;;;;;56.08;28.65;;;10.60;99.90;;;;;;5065118;28;20328;-72
2024/01/26 00:03:19;;;;;;;63.92;29.27;;;10.50;99.90;;;;;;5065627;28;20032;-72
2024/01/26 00:05:44;;;;;;;58.55;29.83;;;10.50;99.90;;;;;;5064382;28;20520;-73
2024/01/26 00:08:12;;;;;;;61.40;29.45;;;10.50;99.90;;;;;;5065248;28;20039;-72
2024/01/26 00:10:38;;;;;;;55.33;28.90;;;10.50;99.90;;;;;;5064335;28;20060;-73
2024/01/26 00:13:04;;;;;;;47.63;25.73;;;10.60;99.90;;;;;;5065642;28;20052;-73
2024/01/26 00:15:29;;;;;;;55.53;28.80;;;10.50;99.90;;;;;;5064463;28;20336;-72
2024/01/26 00:17:55;;;;;;;52.70;28.20;;;10.50;99.90;;;;;;5065724;28;20029;-72
2024/01/26 00:20:21;;;;;;;53.58;29.85;;;10.60;99.90;;;;;;5068754;28;20025;-73
2024/01/26 00:22:47;;;;;;;51.67;27.55;;;10.50;99.90;;;;;;5051102;28;20455;-73
2024/01/26 00:25:13;;;;;;;55.40;27.75;;;10.60;99.90;;;;;;5068376;28;20112;-73
2024/01/26 00:27:38;;;;;;;52.83;28.58;;;10.50;99.90;;;;;;5069269;28;20112;-73
2024/01/26 00:30:06;;;;;;;53.90;30.48;;;10.60;99.90;;;;;;5068593;28;20060;-72
2024/01/26 00:32:32;;;;;;;57.63;28.80;;;10.60;99.90;;;;;;5069055;28;20024;-72
2024/01/26 00:34:57;;;;;;;49.95;28.35;;;10.60;99.90;;;;;;5068269;28;20035;-72
2024/01/26 00:37:23;;;;;;;55.95;28.60;;;10.50;99.90;;;;;;5068966;28;20056;-73
2024/01/26 00:39:48;;;;;;;57.50;28.05;;;10.50;99.90;;;;;;5068152;28;20066;-73
2024/01/26 00:42:14;;;;;;;61.88;31.00;;;10.50;99.90;;;;;;5068557;28;20045;-72
2024/01/26 00:44:40;;;;;;;67.47;32.60;;;10.50;99.90;;;;;;5068053;28;20524;-72
2024/01/26 00:47:06;;;;;;;57.22;29.50;;;10.60;99.90;;;;;;5068735;28;20029;-72
2024/01/26 00:49:31;;;;;;;55.10;29.48;;;10.60;99.90;;;;;;5068116;28;20382;-72
2024/01/26 00:51:57;;;;;;;56.60;31.55;;;10.50;99.90;;;;;;5068772;28;20077;-73
2024/01/26 00:54:23;;;;;;;56.78;31.08;;;10.60;99.90;;;;;;5067819;28;20063;-74
2024/01/26 00:56:48;;;;;;;66.35;33.78;;;10.60;99.90;;;;;;5068449;28;20154;-72
2024/01/26 00:59:14;;;;;;;61.20;31.23;;;10.60;99.90;;;;;;5067861;28;20032;-72
2024/01/26 01:01:39;;;;;;;53.95;30.05;;;10.50;99.90;;;;;;5050175;28;20058;-72
2024/01/26 01:04:05;;;;;;;55.30;30.50;;;10.50;99.90;;;;;;5067892;28;20028;-73
2024/01/26 01:06:31;;;;;;;51.63;29.13;;;10.60;99.90;;;;;;5068718;28;20020;-72
2024/01/26 01:08:57;;;;;;;49.58;27.90;;;10.60;99.90;;;;;;5067754;28;20366;-73
2024/01/26 01:11:22;;;;;;;54.60;28.10;;;10.60;99.90;;;;;;5050387;28;20055;-72
2024/01/26 01:13:48;;;;;;;50.13;27.58;;;10.60;99.90;;;;;;5068110;28;20108;-72
2024/01/26 01:16:15;;;;;;;46.63;27.15;;;10.60;99.90;;;;;;5067842;28;20545;-73
2024/01/26 01:18:41;;;;;;;46.67;28.05;;;10.60;99.90;;;;;;5068254;28;20040;-72
2024/01/26 01:21:07;;;;;;;49.78;30.40;;;10.60;99.90;;;;;;5068046;28;20017;-72
2024/01/26 01:23:32;;;;;;;46.92;28.67;;;10.60;99.90;;;;;;5067685;28;20477;-73
2024/01/26 01:25:58;;;;;;;50.88;27.80;;;10.60;99.90;;;;;;5067797;28;20207;-73
2024/01/26 01:28:24;;;;;;;40.92;24.25;;;10.60;99.90;;;;;;5068073;28;20457;-73
2024/01/26 01:30:50;;;;;;;42.88;25.48;;;10.60;99.90;;;;;;5066497;28;20112;-72
2024/01/26 01:33:15;;;;;;;39.33;25.05;;;10.60;99.90;;;;;;5068152;28;20021;-73
2024/01/26 01:35:41;;;;;;;40.63;25.85;;;10.60;99.90;;;;;;5067288;28;20039;-72
2024/01/26 01:38:07;;;;;;;38.92;25.42;;;10.60;99.90;;;;;;5068079;28;20031;-72
2024/01/26 01:40:33;;;;;;;40.30;24.58;;;10.60;99.90;;;;;;5067123;28;20056;-73
2024/01/26 01:42:59;;;;;;;39.53;25.63;;;10.60;99.90;;;;;;5068318;28;20052;-73
2024/01/26 01:45:24;;;;;;;38.03;24.00;;;10.60;99.90;;;;;;5067215;28;20673;-73
2024/01/26 01:47:50;;;;;;;41.15;24.55;;;10.60;99.90;;;;;;5068261;28;20107;-72
2024/01/26 01:50:16;;;;;;;39.63;25.23;;;10.60;99.90;;;;;;5067294;28;20020;-73
2024/01/26 01:52:42;;;;;;;34.67;24.00;;;10.60;99.90;;;;;;5067719;28;20048;-72
2024/01/26 01:55:11;;;;;;;39.08;24.30;;;10.60;99.90;;;;;;5067450;28;20059;-73
2024/01/26 01:57:41;;;;;;;37.35;24.95;;;10.60;99.90;;;;;;5067779;28;20352;-72
2024/01/26 02:00:15;;;;;;;38.72;23.58;;;10.60;99.90;;;;;;5067104;28;20038;-73
2024/01/26 02:02:46;;;;;;;40.15;24.73;;;10.60;99.90;;;;;;5067293;28;20033;-72
2024/01/26 02:05:13;;;;;;;37.83;24.45;;;10.60;99.90;;;;;;5066985;28;20056;-73
2024/01/26 02:07:39;;;;;;;36.45;23.40;;;10.60;99.90;;;;;;5067612;28;20029;-72
2024/01/26 02:10:07;;;;;;;30.88;19.67;;;10.60;99.90;;;;;;5052943;28;20146;-73
2024/01/26 02:12:33;;;;;;;37.08;22.52;;;10.60;99.90;;;;;;5067498;28;20060;-72
2024/01/26 02:14:59;;;;;;;33.25;21.80;;;10.60;99.90;;;;;;5066934;28;20531;-73
2024/01/26 02:17:32;;;;;;;35.67;22.25;;;10.60;99.90;;;;;;5067358;28;20017;-72
2024/01/26 02:19:58;;;;;;;33.10;22.13;;;10.60;99.90;;;;;;5066655;28;20021;-73
2024/01/26 02:22:23;;;;;;;32.28;20.95;;;10.60;99.90;;;;;;5067107;28;20025;-72
2024/01/26 02:24:49;;;;;;;28.40;20.05;;;10.60;99.90;;;;;;5066570;28;20035;-73
2024/01/26 02:27:15;;;;;;;31.25;20.20;;;10.60;99.90;;;;;;5067150;28;20033;-73
2024/01/26 02:29:40;;;;;;;32.15;20.77;;;10.60;99.90;;;;;;5066422;28;20056;-73
2024/01/26 02:32:07;;;;;;;30.45;20.27;;;10.70;99.90;;;;;;5067001;28;20067;-73
2024/01/26 02:34:33;;;;;;;27.60;18.75;;;10.70;99.90;;;;;;5066431;28;20445;-72
2024/01/26 02:36:58;;;;;;;26.27;19.02;;;10.70;99.90;;;;;;5066619;28;20012;-73
2024/01/26 02:39:24;;;;;;;24.63;17.17;;;10.60;99.90;;;;;;5066077;28;20034;-73
2024/01/26 02:41:50;;;;;;;27.00;18.13;;;10.60;99.90;;;;;;5048345;28;20301;-72
2024/01/26 02:44:15;;;;;;;23.98;17.63;;;10.60;99.90;;;;;;5066536;28;20028;-73
2024/01/26 02:46:41;;;;;;;23.92;17.50;;;10.60;99.90;;;;;;5066501;28;20021;-72
2024/01/26 02:49:07;;;;;;;23.25;16.50;;;10.70;99.90;;;;;;5065901;28;20485;-72
2024/01/26 02:51:32;;;;;;;23.20;16.65;;;10.60;99.90;;;;;;5065941;28;20052;-74
2024/01/26 02:54:00;;;;;;;18.70;14.75;;;10.60;99.90;;;;;;5066764;28;20027;-73
2024/01/26 02:56:25;;;;;;;21.42;15.55;;;10.70;99.90;;;;;;5066091;28;20012;-73
2024/01/26 02:58:51;;;;;;;23.95;14.23;;;10.70;99.90;;;;;;5066700;28;20081;-72
2024/01/26 03:01:17;;;;;;;21.48;13.45;;;10.70;99.90;;;;;;5065573;28;20063;-72
2024/01/26 03:03:43;;;;;;;16.35;13.02;;;10.70;99.90;;;;;;5066123;28;20028;-73
2024/01/26 03:06:11;;;;;;;20.20;13.00;;;10.70;99.90;;;;;;5065541;28;20056;-73
2024/01/26 03:08:37;;;;;;;17.58;12.38;;;10.80;99.90;;;;;;5066092;28;20040;-72
2024/01/26 03:11:04;;;;;;;16.10;12.43;;;10.80;99.90;;;;;;5065728;28;20044;-72
2024/01/26 03:13:29;;;;;;;14.88;10.38;;;10.80;99.90;;;;;;5051834;28;20107;-73
2024/01/26 03:15:55;;;;;;;17.33;10.77;;;10.80;99.90;;;;;;5065522;28;20588;-73
2024/01/26 03:18:21;;;;;;;19.25;10.98;;;10.80;99.90;;;;;;5066052;28;20481;-72
2024/01/26 03:20:47;;;;;;;15.65;10.15;;;10.80;99.90;;;;;;5064836;28;20116;-73
2024/01/26 03:23:13;;;;;;;13.50;10.27;;;10.80;99.90;;;;;;5065972;28;20520;-72
2024/01/26 03:25:39;;;;;;;14.40;9.68;;;10.80;99.90;;;;;;5065203;28;20088;-73
2024/01/26 03:28:06;;;;;;;12.95;9.75;;;10.80;99.90;;;;;;5065797;28;20029;-73
2024/01/26 03:30:33;;;;;;;12.68;9.10;;;10.90;99.90;;;;;;5064900;28;20016;-73
2024/01/26 03:32:59;;;;;;;13.65;10.05;;;10.90;99.90;;;;;;5065493;28;20494;-73
2024/01/26 03:35:24;;;;;;;13.77;9.63;;;10.90;99.90;;;;;;5064805;28;20028;-72
2024/01/26 03:37:50;;;;;;;13.85;9.77;;;10.90;99.90;;;;;;5065702;28;20027;-73
2024/01/26 03:40:16;;;;;;;18.85;9.57;;;10.90;99.90;;;;;;5064933;28;20108;-73
2024/01/26 03:42:42;;;;;;;13.52;9.35;;;10.90;99.90;;;;;;5047417;28;20079;-73
2024/01/26 03:45:08;;;;;;;11.93;9.00;;;10.90;99.90;;;;;;5064930;28;20032;-77
2024/01/26 03:47:34;;;;;;;12.25;8.60;;;10.90;99.90;;;;;;5065197;28;20029;-73
2024/01/26 03:49:59;;;;;;;14.95;9.02;;;11.00;99.90;;;;;;5064954;28;20031;-73
2024/01/26 03:52:25;;;;;;;12.27;7.85;;;11.00;99.90;;;;;;5064933;28;20027;-73
2024/01/26 03:54:51;;;;;;;12.70;8.27;;;11.00;99.90;;;;;;5064319;28;20021;-72
2024/01/26 03:57:17;;;;;;;12.88;8.65;;;11.00;99.90;;;;;;5065692;28;20078;-74
2024/01/26 03:59:42;;;;;;;12.35;8.55;;;11.00;99.90;;;;;;5064280;28;20021;-73
2024/01/26 04:02:08;;;;;;;16.38;9.82;;;11.00;99.90;;;;;;5065443;28;20238;-72
2024/01/26 04:04:34;;;;;;;11.60;7.65;;;11.00;99.90;;;;;;5064595;28;20075;-73
2024/01/26 04:06:59;;;;;;;11.85;8.23;;;11.00;99.90;;;;;;5065307;28;20036;-73
2024/01/26 04:09:25;;;;;;;11.98;7.97;;;11.00;99.90;;;;;;5064799;28;20444;-73
2024/01/26 04:11:51;;;;;;;12.10;7.15;;;11.10;99.90;;;;;;5065069;28;20038;-72
2024/01/26 04:14:16;;;;;;;12.35;6.50;;;11.00;99.90;;;;;;5047103;28;20074;-72
2024/01/26 04:16:42;;;;;;;11.68;7.32;;;11.10;99.90;;;;;;5064524;28;20115;-73
2024/01/26 04:19:08;;;;;;;8.75;6.80;;;11.00;99.90;;;;;;5065168;28;20048;-72
2024/01/26 04:21:33;;;;;;;9.45;6.85;;;11.00;99.90;;;;;;5064058;28;20492;-72
2024/01/26 04:23:59;;;;;;;11.80;6.97;;;11.10;99.90;;;;;;5065134;28;20028;-73
2024/01/26 04:26:26;;;;;;;11.32;6.80;;;11.00;99.90;;;;;;5064369;28;20463;-72
2024/01/26 04:28:52;;;;;;;10.98;6.80;;;11.00;99.90;;;;;;5065541;28;20027;-72
2024/01/26 04:31:17;;;;;;;10.18;6.30;;;11.10;99.90;;;;;;5064423;28;20024;-73
2024/01/26 04:33:43;;;;;;;14.38;7.63;;;11.10;99.90;;;;;;5064896;28;20012;-72
2024/01/26 04:36:09;;;;;;;9.88;6.45;;;11.10;99.90;;;;;;5046324;28;20535;-72
2024/01/26 04:38:37;;;;;;;11.18;6.85;;;11.00;99.90;;;;;;5064724;28;20032;-72
2024/01/26 04:41:03;;;;;;;10.07;7.00;;;11.10;99.90;;;;;;5064418;28;20068;-72
2024/01/26 04:43:29;;;;;;;9.88;6.35;;;11.10;99.90;;;;;;5046336;28;20071;-73
2024/01/26 04:45:55;;;;;;;10.50;6.18;;;11.10;99.90;;;;;;5064318;28;20024;-72
2024/01/26 04:48:21;;;;;;;13.32;7.15;;;11.10;99.90;;;;;;5064898;28;20035;-72
2024/01/26 04:50:47;;;;;;;10.90;6.57;;;11.10;99.90;;;;;;5063918;28;20465;-72
2024/01/26 04:53:15;;;;;;;9.65;7.20;;;11.10;99.90;;;;;;5065131;28;20021;-72
2024/01/26 04:55:41;;;;;;;10.98;6.18;;;11.10;99.90;;;;;;5063878;28;20028;-72
2024/01/26 04:58:07;;;;;;;11.02;5.65;;;11.10;99.90;;;;;;5065088;28;20028;-73
2024/01/26 05:00:32;;;;;;;9.65;6.40;;;11.10;99.90;;;;;;5064037;28;20020;-73
2024/01/26 05:02:58;;;;;;;11.15;6.55;;;11.10;99.90;;;;;;5064627;28;20245;-72
2024/01/26 05:05:24;;;;;;;8.25;6.18;;;11.10;99.90;;;;;;5064838;28;20016;-73
2024/01/26 05:07:50;;;;;;;10.25;6.65;;;11.20;99.90;;;;;;5068406;28;20028;-73
2024/01/26 05:10:16;;;;;;;11.13;6.70;;;11.20;99.90;;;;;;5068198;28;20028;-73
2024/01/26 05:12:41;;;;;;;14.15;7.13;;;11.10;99.90;;;;;;5068029;28;20044;-73
2024/01/26 05:15:11;;;;;;;9.68;6.28;;;11.20;99.90;;;;;;5068012;28;20021;-72
2024/01/26 05:17:37;;;;;;;14.38;7.15;;;11.20;99.90;;;;;;5068328;28;20024;-72
2024/01/26 05:20:04;;;;;;;11.35;6.75;;;11.20;99.90;;;;;;5067727;28;20012;-73
2024/01/26 05:22:30;;;;;;;11.93;7.32;;;11.20;99.90;;;;;;5067832;28;20036;-73
2024/01/26 05:24:56;;;;;;;11.98;7.07;;;11.20;99.90;;;;;;5067775;28;20021;-73
2024/01/26 05:27:21;;;;;;;10.75;7.63;;;11.20;99.90;;;;;;5067845;28;20055;-72
2024/01/26 05:29:47;;;;;;;10.98;7.10;;;11.20;99.90;;;;;;5065456;28;20036;-72
2024/01/26 05:32:14;;;;;;;9.18;7.10;;;11.20;99.90;;;;;;5067756;28;20603;-72
2024/01/26 05:34:40;;;;;;;12.65;8.02;;;11.20;99.90;;;;;;5067345;28;20074;-72
2024/01/26 05:37:06;;;;;;;17.65;9.10;;;11.20;99.90;;;;;;5067822;28;20415;-71
2024/01/26 05:39:32;;;;;;;11.60;8.07;;;11.20;99.90;;;;;;5068057;28;20044;-72
2024/01/26 05:41:58;;;;;;;15.35;9.27;;;11.20;99.90;;;;;;5067112;28;20033;-72
2024/01/26 05:44:24;;;;;;;12.95;8.75;;;11.20;99.90;;;;;;5067949;28;20078;-72
2024/01/26 05:46:49;;;;;;;12.80;8.73;;;11.20;99.90;;;;;;5067261;28;20016;-72
2024/01/26 05:49:15;;;;;;;12.50;9.23;;;11.20;99.90;;;;;;5067497;28;20031;-72
2024/01/26 05:51:41;;;;;;;12.85;8.75;;;11.30;99.90;;;;;;5067042;28;20070;-73
2024/01/26 05:54:06;;;;;;;15.50;10.43;;;11.30;99.90;;;;;;5067648;28;20364;-73
2024/01/26 05:56:32;;;;;;;13.13;8.82;;;11.30;99.90;;;;;;5067113;28;20028;-72
2024/01/26 05:58:58;;;;;;;14.57;9.70;;;11.30;99.90;;;;;;5067624;28;20086;-72
2024/01/26 06:01:24;;;;;;;15.70;10.07;;;11.30;99.90;;;;;;5067275;28;20528;-72
2024/01/26 06:03:49;;;;;;;13.98;10.60;;;11.30;99.90;;;;;;5067269;28;20035;-71
2024/01/26 06:06:18;;;;;;;17.33;10.80;;;11.20;99.90;;;;;;5067002;28;20390;-72
2024/01/26 06:08:44;;;;;;;15.60;10.27;;;11.20;99.90;;;;;;5065585;28;20025;-73
2024/01/26 06:11:09;;;;;;;15.40;9.80;;;11.20;99.90;;;;;;5067075;28;20095;-72
2024/01/26 06:13:36;;;;;;;13.35;10.38;;;11.20;99.90;;;;;;5066957;28;20055;-72
2024/01/26 06:16:03;;;;;;;15.25;10.75;;;11.20;99.90;;;;;;5066285;28;20020;-72
2024/01/26 06:18:28;;;;;;;14.38;10.63;;;11.10;99.90;;;;;;5066864;28;20021;-72
2024/01/26 06:20:54;;;;;;;16.00;11.10;;;11.10;99.90;;;;;;5064715;28;20029;-72
2024/01/26 06:23:20;;;;;;;14.85;10.20;;;11.10;99.90;;;;;;5067142;28;20036;-71
2024/01/26 06:25:45;;;;;;;15.63;10.88;;;11.00;99.90;;;;;;5066288;28;20026;-71
2024/01/26 06:28:11;;;;;;;14.75;10.30;;;11.00;99.90;;;;;;5067194;28;20062;-71
2024/01/26 06:30:37;;;;;;;14.68;10.10;;;11.00;99.90;;;;;;5065960;28;20085;-72
2024/01/26 06:33:03;;;;;;;15.57;11.10;;;11.00;99.90;;;;;;5067349;28;20539;-72
2024/01/26 06:35:28;;;;;;;13.07;10.32;;;10.80;99.90;;;;;;5066064;28;20104;-71
2024/01/26 06:37:54;;;;;;;13.82;10.20;;;10.80;99.90;;;;;;5067127;28;20024;-71
2024/01/26 06:40:19;;;;;;;15.90;11.07;;;10.80;99.90;;;;;;5065850;28;20024;-71
2024/01/26 06:42:45;;;;;;;18.60;11.60;;;10.80;99.90;;;;;;5046574;28;20047;-71
2024/01/26 06:45:12;;;;;;;14.75;11.00;;;10.80;99.90;;;;;;5045782;28;20386;-71
2024/01/26 06:47:38;;;;;;;20.65;11.45;;;10.80;99.90;;;;;;5045789;28;20039;-72
2024/01/26 06:50:05;;;;;;;19.65;11.85;;;10.80;99.90;;;;;;5040088;28;20041;-72
2024/01/26 06:52:32;;;;;;;16.15;10.60;;;10.80;99.90;;;;;;5046217;28;20421;-72
2024/01/26 06:54:57;;;;;;;14.35;11.38;;;10.80;99.90;;;;;;5046341;28;20017;-72
2024/01/26 06:57:23;;;;;;;17.17;11.30;;;10.80;99.90;;;;;;5044725;28;20024;-72
2024/01/26 06:59:49;;;;;;;18.70;11.73;;;10.80;99.90;;;;;;5044049;28;20359;-72
2024/01/26 07:02:14;;;;;;;15.60;10.68;;;10.80;99.90;;;;;;5045549;28;20124;-72
2024/01/26 07:04:40;;;;;;;13.88;10.23;;;10.80;99.90;;;;;;5039258;28;20424;-72
2024/01/26 07:07:05;;;;;;;13.68;10.02;;;10.80;99.90;;;;;;5042904;28;20120;-73
2024/01/26 07:09:31;;;;;;;12.77;9.48;;;10.80;99.90;;;;;;5044203;28;20133;-72
2024/01/26 07:11:57;;;;;;;14.50;10.20;;;10.70;99.90;;;;;;5039121;28;20429;-72
2024/01/26 07:14:23;;;;;;;15.32;10.05;;;10.80;99.90;;;;;;5038932;28;20032;-72
2024/01/26 07:16:49;;;;;;;13.60;9.77;;;10.80;99.90;;;;;;5031896;28;20025;-72
2024/01/26 07:19:15;;;;;;;17.90;10.20;;;10.80;99.90;;;;;;5040086;28;20513;-72
2024/01/26 07:21:41;;;;;;;13.15;9.50;;;10.80;99.90;;;;;;5031352;28;20116;-72
2024/01/26 07:24:08;;;;;;;14.55;9.80;;;10.80;99.90;;;;;;5036393;28;20111;-72
2024/01/26 07:26:33;;;;;;;16.02;9.55;;;10.80;99.90;;;;;;5040749;28;20183;-75
2024/01/26 07:28:59;;;;;;;14.77;9.20;;;10.80;99.90;;;;;;5035122;28;20561;-72
2024/01/26 07:31:25;;;;;;;13.75;9.25;;;10.90;99.90;;;;;;5040611;28;20029;-73
2024/01/26 07:33:50;;;;;;;12.85;9.13;;;10.80;99.90;;;;;;5045374;28;20029;-73
2024/01/26 07:36:16;;;;;;;13.75;9.75;;;10.90;99.90;;;;;;5035315;28;20466;-73
2024/01/26 07:38:42;;;;;;;13.75;10.00;;;10.90;99.90;;;;;;5045421;28;20017;-72
2024/01/26 07:41:08;;;;;;;14.07;9.18;;;10.90;99.90;;;;;;5051507;28;20052;-73
2024/01/26 07:43:33;;;;;;;12.80;8.90;;;10.90;99.90;;;;;;5056182;28;20479;-73
2024/01/26 07:45:59;;;;;;;16.63;9.50;;;10.90;99.90;;;;;;5064927;28;20024;-72
2024/01/26 07:48:25;;;;;;;13.85;9.70;;;10.90;99.90;;;;;;5065171;28;20050;-73
2024/01/26 07:50:51;;;;;;;17.92;9.85;;;11.00;99.90;;;;;;5065011;28;20032;-72
2024/01/26 07:53:17;;;;;;;12.23;8.25;;;11.00;99.90;;;;;;5065733;28;20039;-72
2024/01/26 07:55:42;;;;;;;12.13;7.68;;;11.00;99.90;;;;;;5064795;28;20025;-72
2024/01/26 07:58:08;;;;;;;18.08;11.30;;;11.00;99.90;;;;;;5065630;28;20020;-72
2024/01/26 08:00:34;;;;;;;18.25;11.73;;;11.00;99.90;;;;;;5064976;28;20470;-73
2024/01/26 08:02:59;;;;;;;19.60;12.27;;;11.00;99.90;;;;;;5066043;28;20047;-72
2024/01/26 08:05:25;;;;;;;17.08;8.23;;;11.10;99.90;;;;;;5047047;28;20039;-72
2024/01/26 08:07:51;;;;;;;11.40;5.28;;;11.10;99.90;;;;;;5065290;28;20401;-73
2024/01/26 08:10:17;;;;;;;13.85;6.85;;;11.20;99.90;;;;;;5065094;28;20499;-72
2024/01/26 08:12:44;;;;;;;11.40;6.88;;;11.20;99.90;;;;;;5064832;28;20070;-72
2024/01/26 08:15:10;;;;;;;19.60;7.20;;;11.20;99.90;;;;;;5065345;28;20143;-72
2024/01/26 08:17:37;;;;;;;14.70;7.18;;;11.20;99.90;;;;;;5065774;28;20112;-72
2024/01/26 08:20:03;;;;;;;16.17;7.55;;;11.20;99.90;;;;;;5045928;28;20071;-72
2024/01/26 08:22:29;;;;;;;13.57;7.35;;;11.20;99.90;;;;;;5055507;28;20029;-72
2024/01/26 08:24:58;;;;;;;16.35;7.65;;;11.30;99.90;;;;;;5046221;28;20050;-72
2024/01/26 08:27:24;;;;;;;17.83;6.95;;;11.20;99.90;;;;;;5053779;28;20043;-72
2024/01/26 08:29:49;;;;;;;12.02;6.57;;;11.30;99.90;;;;;;5064549;28;20032;-72
2024/01/26 08:32:15;;;;;;;14.05;7.57;;;11.30;99.90;;;;;;5059592;28;20473;-73
2024/01/26 08:34:41;;;;;;;18.20;8.55;;;11.30;99.90;;;;;;5064219;28;20024;-72
2024/01/26 08:37:07;;;;;;;14.93;7.95;;;11.40;99.90;;;;;;5064310;28;20182;-72
2024/01/26 08:39:33;;;;;;;14.48;8.25;;;11.40;99.90;;;;;;5062711;28;20033;-73
2024/01/26 08:41:59;;;;;;;13.10;8.35;;;11.40;99.90;;;;;;5068448;28;20489;-72
2024/01/26 08:44:25;;;;;;;14.60;8.57;;;11.40;99.90;;;;;;5064303;28;20437;-71
2024/01/26 08:46:51;;;;;;;12.80;7.53;;;11.40;99.90;;;;;;5068121;28;20043;-72
2024/01/26 08:49:16;;;;;;;14.65;8.05;;;11.50;99.90;;;;;;5069485;28;20029;-72
2024/01/26 08:51:42;;;;;;;14.18;7.45;;;11.50;99.90;;;;;;5068825;28;20032;-72
2024/01/26 08:54:08;;;;;;;16.35;7.85;;;11.50;99.90;;;;;;5051915;28;20119;-72
2024/01/26 08:56:39;;;;;;;13.38;7.82;;;11.50;99.90;;;;;;5064987;28;20012;-72
2024/01/26 08:59:07;;;;;;;15.43;8.38;;;11.60;99.90;;;;;;5060210;28;20448;-72
2024/01/26 09:01:34;;;;;;;13.25;7.82;;;11.60;99.90;;;;;;5048154;28;20078;-72
2024/01/26 09:04:00;;;;;;;13.98;7.13;;;11.60;99.90;;;;;;5032328;28;20040;-72
2024/01/26 09:06:26;;;;;;;11.07;7.43;;;11.60;99.90;;;;;;5058571;28;20020;-72
2024/01/26 09:08:52;;;;;;;11.75;7.25;;;11.60;99.90;;;;;;5068134;28;20079;-72
2024/01/26 09:11:17;;;;;;;13.05;7.53;;;11.60;99.90;;;;;;5067561;28;20151;-72
2024/01/26 09:13:43;;;;;;;19.67;6.72;;;11.60;99.90;;;;;;5067883;28;20111;-72
2024/01/26 09:16:11;;;;;;;10.38;6.07;;;11.60;99.90;;;;;;5067307;28;20162;-72
2024/01/26 09:18:40;;;;;;;11.80;5.63;;;11.60;99.90;;;;;;5055194;28;20024;-72
2024/01/26 09:21:10;;;;;;;12.35;5.57;;;11.60;99.90;;;;;;5067514;28;20059;-72
2024/01/26 09:23:36;;;;;;;16.10;4.90;;;11.60;99.90;;;;;;5066198;28;20029;-72
2024/01/26 09:26:02;;;;;;;8.70;3.42;;;11.60;99.90;;;;;;5067172;28;20169;-71
2024/01/26 09:28:27;;;;;;;10.60;3.03;;;11.50;99.90;;;;;;5067574;28;20023;-71
2024/01/26 09:30:53;;;;;;;7.13;2.83;;;11.50;99.90;;;;;;5066960;28;20490;-75
2024/01/26 09:33:19;;;;;;;10.05;2.85;;;11.50;99.90;;;;;;5059887;28;20025;-72
2024/01/26 09:35:45;;;;;;;10.07;2.78;;;11.50;99.90;;;;;;5067241;28;20013;-72
2024/01/26 09:38:11;;;;;;;7.60;2.30;;;11.40;99.90;;;;;;5067469;28;20051;-72
2024/01/26 09:40:38;;;;;;;6.07;1.92;;;11.40;99.90;;;;;;5066600;28;20058;-71
2024/01/26 09:43:04;;;;;;;5.35;1.33;;;11.40;99.90;;;;;;5067410;28;20068;-71
2024/01/26 09:45:30;;;;;;;13.48;1.35;;;11.30;99.90;;;;;;5066262;28;20020;-71
2024/01/26 09:47:57;;;;;;;6.53;1.10;;;11.10;99.90;;;;;;5067230;28;20079;-72
2024/01/26 09:50:23;;;;;;;3.50;1.23;;;11.00;99.90;;;;;;5066606;28;20450;-71
2024/01/26 09:52:50;;;;;;;8.85;1.08;;;11.00;99.90;;;;;;5066149;28;20045;-72
2024/01/26 09:55:16;;;;;;;4.35;0.95;;;10.90;99.90;;;;;;5059243;28;20025;-72
2024/01/26 09:57:45;;;;;;;6.32;1.15;;;10.80;99.90;;;;;;5065628;28;20046;-71
2024/01/26 10:00:12;;;;;;;4.32;0.77;;;10.70;99.90;;;;;;5064785;28;20056;-72
2024/01/26 10:02:38;;;;;;;3.65;0.70;;;10.70;99.90;;;;;;5059435;28;20162;-72
2024/01/26 10:05:05;;;;;;;0.95;0.50;;;10.50;99.90;;;;;;5056404;28;20644;-72
2024/01/26 10:07:31;;;;;;;2.03;0.45;;;10.40;99.90;;;;;;5061154;28;20032;-71
2024/01/26 10:09:56;;;;;;;2.63;0.50;;;10.20;99.90;;;;;;5060422;28;20411;-71
2024/01/26 10:12:23;;;;;;;7.22;0.98;;;10.00;99.90;;;;;;5056488;28;20028;-73
2024/01/26 10:14:49;;;;;;;6.32;0.95;;;9.90;99.90;;;;;;5065015;28;20043;-71
2024/01/26 10:17:18;;;;;;;3.15;0.70;;;9.80;99.90;;;;;;5054664;28;20043;-72
2024/01/26 10:19:44;;;;;;;5.25;0.40;;;9.70;99.90;;;;;;5066318;28;20024;-72
2024/01/26 10:22:09;;;;;;;2.15;0.50;;;9.60;99.90;;;;;;5064230;28;20031;-72
2024/01/26 10:24:35;;;;;;;3.80;0.52;;;9.50;99.90;;;;;;5059222;28;20983;-71
2024/01/26 10:27:01;;;;;;;8.70;0.68;;;9.50;99.90;;;;;;5060754;28;20058;-72
2024/01/26 10:29:26;;;;;;;5.05;1.08;;;9.40;99.90;;;;;;5066181;28;20024;-72
2024/01/26 10:31:52;;;;;;;8.98;0.85;;;9.40;99.90;;;;;;5065720;28;20020;-72
2024/01/26 10:34:19;;;;;;;1.65;0.52;;;9.40;99.90;;;;;;5064618;28;20035;-72
2024/01/26 10:36:47;;;;;;;8.95;1.58;;;9.40;99.90;;;;;;5053200;28;20025;-72
2024/01/26 10:39:23;;;;;;;6.55;1.10;;;9.40;99.90;;;;;;5063739;28;20013;-72
2024/01/26 10:41:52;;;;;;;5.75;1.15;;;9.40;99.90;;;;;;5053205;28;20075;-74
2024/01/26 10:44:18;;;;;;;8.20;1.48;;;9.50;99.90;;;;;;5049087;28;20410;-72
2024/01/26 10:46:45;;;;;;;6.60;0.98;;;9.50;99.90;;;;;;5059254;28;20020;-72
2024/01/26 10:49:12;;;;;;;5.78;1.00;;;9.60;99.90;;;;;;5064198;28;20523;-71
2024/01/26 10:51:38;;;;;;;8.77;1.20;;;9.60;99.90;;;;;;5058156;28;20359;-72
2024/01/26 10:54:09;;;;;;;6.03;1.25;;;9.70;99.90;;;;;;5061857;28;20070;-72
2024/01/26 10:56:35;;;;;;;8.35;1.08;;;9.80;99.90;;;;;;5062386;28;20025;-72
2024/01/26 10:59:01;;;;;;;11.52;1.73;;;9.80;99.90;;;;;;5058743;28;20489;-72
2024/01/26 11:01:28;;;;;;;4.50;0.98;;;9.80;99.90;;;;;;5058651;28;20029;-72
2024/01/26 11:03:56;;;;;;;8.55;1.48;;;9.90;99.90;;;;;;5056028;28;20025;-72
2024/01/26 11:06:22;;;;;;;4.68;1.17;;;9.90;99.90;;;;;;5044403;28;20025;-72
2024/01/26 11:08:48;;;;;;;10.57;1.65;;;9.90;99.90;;;;;;5055930;28;20032;-72
2024/01/26 11:11:15;;;;;;;6.40;1.27;;;9.90;99.90;;;;;;5062931;28;20474;-72
2024/01/26 11:13:40;;;;;;;10.48;1.52;;;9.90;99.90;;;;;;5065677;28;20056;-72
2024/01/26 11:16:07;;;;;;;9.02;1.77;;;9.90;99.90;;;;;;5064909;28;20044;-72
2024/01/26 11:18:37;;;;;;;8.95;1.80;;;10.00;99.90;;;;;;5065467;28;20056;-73
2024/01/26 11:21:03;;;;;;;9.73;1.73;;;9.90;99.90;;;;;;5065135;28;20340;-72
2024/01/26 11:23:44;;;;;;;7.85;1.00;;;9.90;99.90;;;;;;5046879;28;20036;-72
2024/01/26 11:26:14;;;;;;;3.45;0.95;;;9.90;99.90;;;;;;5054758;28;20555;-72
2024/01/26 11:28:40;;;;;;;6.00;1.30;;;9.90;99.90;;;;;;5060569;28;20025;-73
2024/01/26 11:31:06;;;;;;;6.15;0.93;;;9.80;99.90;;;;;;5045376;28;20475;-73
2024/01/26 11:33:37;;;;;;;2.90;0.85;;;9.80;99.90;;;;;;5061820;28;20485;-72
2024/01/26 11:36:06;;;;;;;8.75;1.90;;;9.80;99.90;;;;;;5056925;28;20099;-72
2024/01/26 11:38:35;;;;;;;12.88;1.00;;;9.80;99.90;;;;;;5065147;28;20012;-73
2024/01/26 11:41:01;;;;;;;8.38;1.20;;;9.80;99.90;;;;;;5064886;28;20043;-73
2024/01/26 11:43:28;;;;;;;6.07;1.50;;;9.80;99.90;;;;;;5064465;28;20024;-74
2024/01/26 11:45:56;;;;;;;13.50;1.98;;;9.80;99.90;;;;;;5065097;28;20074;-72
2024/01/26 11:48:22;;;;;;;5.45;1.17;;;9.90;99.90;;;;;;5064613;28;20244;-73
2024/01/26 11:50:48;;;;;;;12.57;1.80;;;9.90;99.90;;;;;;5064524;28;20103;-72
2024/01/26 11:53:16;;;;;;;12.45;1.20;;;9.90;99.90;;;;;;5064857;28;20044;-72
2024/01/26 11:55:42;;;;;;;11.57;1.70;;;9.90;99.90;;;;;;5058848;28;20027;-73
2024/01/26 11:58:09;;;;;;;5.97;1.25;;;9.90;99.90;;;;;;5055153;28;20017;-72
2024/01/26 12:00:35;;;;;;;11.60;2.63;;;9.90;99.90;;;;;;5059947;28;20482;-73
2024/01/26 12:03:06;;;;;;;8.82;1.50;;;9.90;99.90;;;;;;5063556;28;20020;-73
2024/01/26 12:05:36;;;;;;;7.53;2.03;;;9.90;99.90;;;;;;5062971;28;20033;-72
2024/01/26 12:08:04;;;;;;;7.75;1.58;;;9.90;99.90;;;;;;5061292;28;20024;-72
2024/01/26 12:10:31;;;;;;;12.35;1.73;;;9.80;99.90;;;;;;5062062;28;20029;-72
2024/01/26 12:12:57;;;;;;;6.60;1.35;;;9.80;99.90;;;;;;5063515;28;20024;-73
2024/01/26 12:15:27;;;;;;;11.82;2.17;;;9.80;99.90;;;;;;5064599;28;20024;-72
2024/01/26 12:17:53;;;;;;;13.83;1.73;;;9.80;99.90;;;;;;5039807;28;20342;-72
2024/01/26 12:20:19;;;;;;;8.65;1.20;;;9.70;99.90;;;;;;5063587;28;20028;-72
2024/01/26 12:22:45;;;;;;;4.45;1.27;;;9.70;99.90;;;;;;5063228;28;20017;-72
2024/01/26 12:25:13;;;;;;;7.00;1.15;;;9.60;99.90;;;;;;5058209;28;20547;-72
2024/01/26 12:27:41;;;;;;;10.43;1.95;;;9.60;99.90;;;;;;5052723;28;20044;-73
2024/01/26 12:30:09;;;;;;;8.02;1.20;;;9.60;99.90;;;;;;5052825;28;20020;-73
2024/01/26 12:32:37;;;;;;;6.95;1.85;;;9.50;99.90;;;;;;5054566;28;20382;-74